Terminal Aerodrome Forecast
Issued by NWS

Home | Current Version | Previous Version | Text Only | Print | Product List | Glossary On
Versions: 1 2 3 4 5 6 7 8 9 10 11 12 13 14 15 16 17 18 19 20 21 22 23 24 25 26 27 28
478
FTUS41 KBUF 262326
TAFJHW
TAF
KJHW 262326Z 2700/2724 23005KT P6SM SCT130 BKN200
     FM270400 19005KT P6SM BKN100
     FM271200 20004KT P6SM VCSH BKN060
     FM272200 32004KT P6SM SCT060 BKN200
      AMD LTD TO CLD VIS AND WIND=

USA.gov is the U.S. government's official web portal to all federal, state and local government web resources and services.